Time;durP1;ratioP1;P1;durP2;ratioP2;P2;SDS_P1;SDS_P2;PMS_P1;PMS_P2;Temp;Humidity;BMP_temperature;BMP_pressure;BME280_temperature;BME280_humidity;BME280_pressure;Samples;Min_cycle;Max_cycle;Signal;HPM_P1;HPM_P2
2023/03/14 00:02:13;;;;;;;1.10;1.00;;;7.90;99.90;;;;;;5073668;28;20591;-74
2023/03/14 00:04:39;;;;;;;1.37;1.13;;;7.90;99.90;;;;;;5073571;28;20248;-74
2023/03/14 00:07:06;;;;;;;1.73;1.40;;;8.00;99.90;;;;;;5073481;28;20197;-74
2023/03/14 00:09:32;;;;;;;2.70;1.10;;;8.00;99.90;;;;;;5073492;28;20225;-74
2023/03/14 00:12:02;;;;;;;1.97;1.20;;;8.00;99.90;;;;;;5073301;28;20769;-74
2023/03/14 00:14:29;;;;;;;2.13;0.97;;;8.00;99.90;;;;;;5073209;28;20201;-74
2023/03/14 00:16:56;;;;;;;1.10;1.00;;;8.00;99.90;;;;;;5073213;28;20233;-73
2023/03/14 00:19:22;;;;;;;1.03;0.70;;;8.00;99.90;;;;;;5073222;28;20724;-74
2023/03/14 00:21:49;;;;;;;1.90;1.30;;;8.00;99.90;;;;;;5073282;28;20228;-73
2023/03/14 00:24:15;;;;;;;1.47;0.90;;;8.00;99.90;;;;;;5073096;28;20201;-73
2023/03/14 00:26:42;;;;;;;2.43;1.37;;;8.00;99.90;;;;;;5073397;28;20193;-73
2023/03/14 00:29:10;;;;;;;1.17;1.07;;;8.00;99.90;;;;;;5073253;28;20239;-73
2023/03/14 00:31:36;;;;;;;1.20;1.10;;;8.00;99.90;;;;;;5072955;28;20698;-73
2023/03/14 00:34:03;;;;;;;1.47;1.00;;;8.00;99.90;;;;;;5073071;28;20201;-72
2023/03/14 00:36:30;;;;;;;2.90;1.10;;;8.00;99.90;;;;;;5072979;28;20231;-73
2023/03/14 00:38:56;;;;;;;1.20;1.10;;;8.00;99.90;;;;;;5073143;28;20239;-73
2023/03/14 00:41:24;;;;;;;1.40;1.10;;;8.00;99.90;;;;;;5073104;28;20250;-73
2023/03/14 00:43:51;;;;;;;1.40;0.77;;;8.00;99.90;;;;;;5073082;28;20204;-73
2023/03/14 00:46:19;;;;;;;1.10;0.90;;;8.00;99.90;;;;;;5072946;28;20239;-73
2023/03/14 00:48:46;;;;;;;2.93;0.93;;;7.90;99.90;;;;;;5072863;28;20232;-72
2023/03/14 00:51:14;;;;;;;1.10;1.00;;;7.90;99.90;;;;;;5072661;28;20249;-72
2023/03/14 00:53:41;;;;;;;1.23;0.87;;;7.90;99.90;;;;;;5073042;28;20220;-73
2023/03/14 00:56:10;;;;;;;1.60;1.20;;;8.00;99.90;;;;;;5072964;28;20665;-73
2023/03/14 00:58:36;;;;;;;1.90;1.60;;;8.00;99.90;;;;;;5072902;28;20232;-74
2023/03/14 01:01:06;;;;;;;1.03;0.90;;;8.00;99.90;;;;;;5072802;28;20231;-72
2023/03/14 01:03:34;;;;;;;1.17;1.07;;;8.00;99.90;;;;;;5072849;28;20223;-73
2023/03/14 01:06:08;;;;;;;1.00;0.90;;;8.00;99.90;;;;;;5072760;28;20692;-73
2023/03/14 01:08:35;;;;;;;0.90;0.90;;;8.00;99.90;;;;;;5072883;28;20263;-75
2023/03/14 01:11:06;;;;;;;1.50;1.10;;;8.00;99.90;;;;;;5072903;28;20229;-74
2023/03/14 01:13:33;;;;;;;2.10;0.90;;;8.00;99.90;;;;;;5072569;28;20765;-72
2023/03/14 01:16:04;;;;;;;1.30;1.10;;;8.00;99.90;;;;;;5072678;28;20266;-73
2023/03/14 01:18:30;;;;;;;2.63;1.20;;;8.00;99.90;;;;;;5073182;28;20239;-73
2023/03/14 01:20:58;;;;;;;1.60;1.00;;;8.00;99.90;;;;;;5072745;28;20232;-73
2023/03/14 01:23:25;;;;;;;1.40;1.10;;;8.00;99.90;;;;;;5072623;28;20537;-76
2023/03/14 01:25:52;;;;;;;1.30;1.20;;;8.00;99.90;;;;;;5072682;28;20620;-74
2023/03/14 01:28:18;;;;;;;1.20;1.10;;;8.00;99.90;;;;;;5075266;28;20327;-74
2023/03/14 01:30:45;;;;;;;1.27;1.17;;;8.00;99.90;;;;;;5076358;28;20228;-74
2023/03/14 01:33:13;;;;;;;1.33;1.23;;;8.00;99.90;;;;;;5076572;28;20252;-74
2023/03/14 01:35:39;;;;;;;1.17;1.07;;;8.10;99.90;;;;;;5076523;28;20204;-73
2023/03/14 01:38:07;;;;;;;1.10;1.00;;;8.00;99.90;;;;;;5076468;28;20228;-74
2023/03/14 01:40:34;;;;;;;1.13;1.03;;;8.10;99.90;;;;;;5076354;28;20225;-74
2023/03/14 01:43:13;;;;;;;2.50;1.10;;;8.10;99.90;;;;;;5076558;28;20228;-74
2023/03/14 01:46:19;;;;;;;1.57;1.20;;;8.10;99.90;;;;;;5076400;28;20224;-74
2023/03/14 01:48:51;;;;;;;1.40;0.90;;;8.10;99.90;;;;;;5076363;28;20254;-74
2023/03/14 01:51:22;;;;;;;0.90;0.90;;;8.10;99.90;;;;;;5076138;28;20593;-74
2023/03/14 01:53:51;;;;;;;1.30;1.20;;;8.10;99.90;;;;;;5075888;28;20656;-74
2023/03/14 01:56:19;;;;;;;1.30;1.00;;;8.10;99.90;;;;;;5076158;28;20259;-74
2023/03/14 01:58:49;;;;;;;2.63;2.43;;;8.10;99.90;;;;;;5076209;28;20224;-74
2023/03/14 02:01:18;;;;;;;0.83;0.83;;;8.10;99.90;;;;;;5076093;28;20197;-74
2023/03/14 02:03:50;;;;;;;2.87;2.10;;;8.10;99.90;;;;;;5075976;28;20201;-74
2023/03/14 02:06:20;;;;;;;1.00;0.93;;;8.10;99.90;;;;;;5075788;28;20201;-74
2023/03/14 02:08:48;;;;;;;1.10;1.00;;;8.10;99.90;;;;;;5075969;28;20466;-73
2023/03/14 02:11:16;;;;;;;1.10;1.00;;;8.10;99.90;;;;;;5075853;28;20542;-73
2023/03/14 02:13:44;;;;;;;0.90;0.90;;;8.00;99.90;;;;;;5075828;28;20265;-74
2023/03/14 02:16:10;;;;;;;1.30;1.00;;;8.00;99.90;;;;;;5075661;28;20365;-74
2023/03/14 02:18:37;;;;;;;2.77;1.00;;;8.10;99.90;;;;;;5075642;28;20243;-73
2023/03/14 02:21:10;;;;;;;0.90;0.90;;;8.00;99.90;;;;;;5075852;28;20744;-73
2023/03/14 02:23:48;;;;;;;1.00;0.90;;;8.00;99.90;;;;;;5075647;28;20263;-73
2023/03/14 02:26:21;;;;;;;0.70;0.70;;;8.00;99.90;;;;;;5075517;28;20224;-73
2023/03/14 02:28:49;;;;;;;3.03;0.80;;;8.00;99.90;;;;;;5075447;28;20240;-73
2023/03/14 02:31:17;;;;;;;0.60;0.60;;;8.00;99.90;;;;;;5075264;28;20201;-72
2023/03/14 02:33:43;;;;;;;0.80;0.80;;;8.00;99.90;;;;;;5075749;28;20283;-73
2023/03/14 02:36:14;;;;;;;1.33;0.70;;;7.90;99.90;;;;;;5075399;28;20251;-72
2023/03/14 02:38:46;;;;;;;0.80;0.80;;;8.00;99.90;;;;;;5074742;28;20229;-72
2023/03/14 02:41:13;;;;;;;0.67;0.67;;;7.90;99.90;;;;;;5075237;28;20232;-72
2023/03/14 02:43:40;;;;;;;0.70;0.70;;;7.90;99.90;;;;;;5075083;28;20204;-71
2023/03/14 02:46:11;;;;;;;3.87;0.80;;;7.90;99.90;;;;;;5075302;28;20197;-72
2023/03/14 02:48:42;;;;;;;0.70;0.70;;;7.90;99.90;;;;;;5075177;28;20264;-72
2023/03/14 02:51:08;;;;;;;0.77;0.77;;;7.90;99.90;;;;;;5075198;28;20660;-72
2023/03/14 02:53:37;;;;;;;0.87;0.67;;;7.90;99.90;;;;;;5074952;28;20232;-71
2023/03/14 02:56:05;;;;;;;0.97;0.80;;;7.90;99.90;;;;;;5074904;28;20665;-71
2023/03/14 02:58:32;;;;;;;1.63;0.63;;;7.90;99.90;;;;;;5075094;28;20232;-71
2023/03/14 03:00:58;;;;;;;0.60;0.60;;;7.80;99.90;;;;;;5074983;28;20288;-72
2023/03/14 03:03:26;;;;;;;0.73;0.73;;;7.80;99.90;;;;;;5075015;28;20241;-71
2023/03/14 03:05:55;;;;;;;0.67;0.67;;;7.80;99.90;;;;;;5074837;28;20231;-72
2023/03/14 03:08:23;;;;;;;0.80;0.80;;;7.80;99.90;;;;;;5074665;28;20257;-71
2023/03/14 03:10:50;;;;;;;0.70;0.70;;;7.80;99.90;;;;;;5074558;28;20197;-71
2023/03/14 03:13:17;;;;;;;0.77;0.77;;;7.80;99.90;;;;;;5074509;28;20696;-72
2023/03/14 03:15:44;;;;;;;0.60;0.60;;;7.80;99.90;;;;;;5074773;28;20224;-71
2023/03/14 03:18:11;;;;;;;0.90;0.80;;;7.70;99.90;;;;;;5074640;28;20229;-71
2023/03/14 03:20:39;;;;;;;0.97;0.80;;;7.70;99.90;;;;;;5074465;28;20284;-72
2023/03/14 03:23:06;;;;;;;0.53;0.53;;;7.70;99.90;;;;;;5074381;28;20725;-71
2023/03/14 03:25:32;;;;;;;1.50;0.90;;;7.70;99.90;;;;;;5074619;28;20201;-72
2023/03/14 03:28:00;;;;;;;0.97;0.90;;;7.70;99.90;;;;;;5074452;28;20229;-71
2023/03/14 03:30:27;;;;;;;1.60;0.70;;;7.70;99.90;;;;;;5074332;28;20228;-72
2023/03/14 03:32:53;;;;;;;1.23;0.97;;;7.70;99.90;;;;;;5074273;28;20696;-72
2023/03/14 03:35:20;;;;;;;1.10;0.67;;;7.70;99.90;;;;;;5074132;28;20227;-71
2023/03/14 03:37:48;;;;;;;1.50;0.90;;;7.70;99.90;;;;;;5074220;28;20251;-71
2023/03/14 03:40:14;;;;;;;1.60;0.90;;;7.70;99.90;;;;;;5074235;28;20301;-71
2023/03/14 03:42:41;;;;;;;0.63;0.63;;;7.70;99.90;;;;;;5073910;28;20699;-72
2023/03/14 03:45:08;;;;;;;1.00;0.70;;;7.70;99.90;;;;;;5074263;28;20228;-71
2023/03/14 03:47:35;;;;;;;1.70;0.70;;;7.70;99.90;;;;;;5073964;28;20208;-71
2023/03/14 03:50:02;;;;;;;1.40;0.60;;;7.70;99.90;;;;;;5073092;28;20208;-71
2023/03/14 03:52:29;;;;;;;1.03;0.70;;;7.70;99.90;;;;;;5073473;28;20704;-71
2023/03/14 03:54:56;;;;;;;0.70;0.70;;;7.70;99.90;;;;;;5073639;28;20522;-71
2023/03/14 03:57:23;;;;;;;0.60;0.60;;;7.70;99.90;;;;;;5073844;28;20193;-71
2023/03/14 03:59:50;;;;;;;0.77;0.77;;;7.70;99.90;;;;;;5073920;28;20275;-71
2023/03/14 04:02:16;;;;;;;1.93;1.10;;;7.70;99.90;;;;;;5073636;28;20228;-71
2023/03/14 04:04:43;;;;;;;1.03;0.90;;;7.60;99.90;;;;;;5073554;28;20228;-71
2023/03/14 04:07:09;;;;;;;2.37;1.00;;;7.70;99.90;;;;;;5073334;28;20236;-71
2023/03/14 04:09:38;;;;;;;3.63;0.80;;;7.70;99.90;;;;;;5073500;28;20233;-71
2023/03/14 04:12:06;;;;;;;1.43;0.90;;;7.60;99.90;;;;;;5073641;28;20229;-71
2023/03/14 04:14:33;;;;;;;1.47;0.80;;;7.60;99.90;;;;;;5073371;28;20756;-71
2023/03/14 04:17:00;;;;;;;1.10;0.90;;;7.70;99.90;;;;;;5073328;28;20721;-71
2023/03/14 04:19:27;;;;;;;1.00;0.80;;;7.70;99.90;;;;;;5073154;28;20201;-70
2023/03/14 04:21:53;;;;;;;1.63;0.80;;;7.70;99.90;;;;;;5073179;28;20235;-70
2023/03/14 04:24:20;;;;;;;1.13;0.80;;;7.70;99.90;;;;;;5073351;28;20259;-71
2023/03/14 04:26:46;;;;;;;0.70;0.70;;;7.80;99.90;;;;;;5073478;28;20245;-70
2023/03/14 04:29:14;;;;;;;1.27;0.80;;;7.80;99.90;;;;;;5073200;28;20232;-70
2023/03/14 04:31:41;;;;;;;1.30;0.70;;;7.90;99.90;;;;;;5073057;28;20229;-70
2023/03/14 04:34:07;;;;;;;0.93;0.80;;;7.80;99.90;;;;;;5073133;28;20735;-71
2023/03/14 04:36:34;;;;;;;0.70;0.70;;;7.90;99.90;;;;;;5073252;28;20233;-73
2023/03/14 04:39:00;;;;;;;0.93;0.70;;;8.00;99.90;;;;;;5073186;28;20220;-72
2023/03/14 04:41:27;;;;;;;0.70;0.70;;;7.90;99.90;;;;;;5073054;28;20232;-69
2023/03/14 04:43:54;;;;;;;2.23;0.93;;;8.00;99.90;;;;;;5072935;28;20609;-71
2023/03/14 04:46:21;;;;;;;1.07;0.93;;;8.00;99.90;;;;;;5072910;28;20232;-71
2023/03/14 04:48:48;;;;;;;1.20;0.90;;;8.00;99.90;;;;;;5072777;28;20229;-71
2023/03/14 04:51:15;;;;;;;1.73;1.07;;;7.90;99.90;;;;;;5072975;28;20236;-71
2023/03/14 04:53:41;;;;;;;0.77;0.70;;;8.00;99.90;;;;;;5072756;28;20256;-71
2023/03/14 04:56:09;;;;;;;1.17;0.70;;;8.00;99.90;;;;;;5072967;28;20232;-72
2023/03/14 04:58:35;;;;;;;1.03;0.90;;;8.00;99.90;;;;;;5072841;28;20250;-71
2023/03/14 05:01:04;;;;;;;1.63;0.90;;;7.90;99.90;;;;;;5072730;28;20258;-70
2023/03/14 05:03:32;;;;;;;1.10;1.00;;;7.90;99.90;;;;;;5072602;28;20200;-70
2023/03/14 05:05:58;;;;;;;1.53;0.60;;;7.90;99.90;;;;;;5072564;28;20251;-70
2023/03/14 05:08:25;;;;;;;1.70;1.00;;;7.90;99.90;;;;;;5072536;28;20232;-70
2023/03/14 05:10:55;;;;;;;1.07;0.97;;;7.90;99.90;;;;;;5072557;28;20258;-70
2023/03/14 05:13:23;;;;;;;1.60;1.00;;;7.90;99.90;;;;;;5072539;28;20250;-71
2023/03/14 05:15:50;;;;;;;0.80;0.80;;;7.90;99.90;;;;;;5072759;28;20212;-71
2023/03/14 05:18:17;;;;;;;1.60;1.27;;;7.90;99.90;;;;;;5072759;28;20197;-71
2023/03/14 05:20:45;;;;;;;1.87;1.20;;;7.90;99.90;;;;;;5072643;28;20228;-71
2023/03/14 05:23:11;;;;;;;1.27;1.13;;;7.90;99.90;;;;;;5072614;28;20197;-71
2023/03/14 05:25:38;;;;;;;1.57;1.20;;;7.90;99.90;;;;;;5072836;28;20255;-71
2023/03/14 05:28:05;;;;;;;1.73;1.10;;;7.90;99.90;;;;;;5072612;28;20293;-71
2023/03/14 05:30:33;;;;;;;1.27;1.10;;;7.90;99.90;;;;;;5072362;28;20236;-71
2023/03/14 05:33:00;;;;;;;3.43;1.40;;;7.90;99.90;;;;;;5072446;28;20307;-71
2023/03/14 05:35:26;;;;;;;2.87;1.10;;;7.90;99.90;;;;;;5072794;28;20233;-71
2023/03/14 05:37:54;;;;;;;1.40;1.10;;;7.90;99.90;;;;;;5072435;28;20243;-72
2023/03/14 05:40:21;;;;;;;1.93;1.43;;;7.90;99.90;;;;;;5072418;28;20232;-72
2023/03/14 05:42:47;;;;;;;2.57;1.00;;;7.90;99.90;;;;;;5072263;28;20262;-71
2023/03/14 05:45:14;;;;;;;1.27;1.03;;;7.90;99.90;;;;;;5072159;28;20253;-71
2023/03/14 05:47:41;;;;;;;3.00;1.30;;;8.00;99.90;;;;;;5072446;28;20231;-71
2023/03/14 05:50:08;;;;;;;3.67;1.20;;;8.10;99.90;;;;;;5072418;28;20247;-71
2023/03/14 05:52:35;;;;;;;2.33;1.23;;;8.00;99.90;;;;;;5072384;28;20239;-71
2023/03/14 05:55:04;;;;;;;3.30;1.40;;;8.00;99.90;;;;;;5072143;28;20635;-71
2023/03/14 05:57:30;;;;;;;4.03;1.23;;;8.10;99.90;;;;;;5072023;28;20288;-71
2023/03/14 05:59:57;;;;;;;2.20;1.30;;;8.10;99.90;;;;;;5072419;28;20593;-72
2023/03/14 06:02:24;;;;;;;2.17;1.20;;;8.10;99.90;;;;;;5072339;28;20193;-72
2023/03/14 06:04:50;;;;;;;3.03;1.33;;;8.00;99.90;;;;;;5072295;28;20641;-71
2023/03/14 06:07:17;;;;;;;4.77;2.17;;;8.00;99.90;;;;;;5072163;28;20235;-71
2023/03/14 06:09:43;;;;;;;3.33;2.40;;;8.10;99.90;;;;;;5072273;28;20260;-71
2023/03/14 06:12:11;;;;;;;3.93;2.07;;;8.10;99.90;;;;;;5072131;28;20249;-71
2023/03/14 06:14:38;;;;;;;1.70;1.27;;;8.10;99.90;;;;;;5075125;28;20260;-71
2023/03/14 06:17:04;;;;;;;5.43;1.47;;;8.10;99.90;;;;;;5075637;28;20232;-71
2023/03/14 06:19:31;;;;;;;3.10;1.40;;;8.20;99.90;;;;;;5075774;28;20267;-71
2023/03/14 06:21:58;;;;;;;3.10;1.83;;;8.20;99.90;;;;;;5075539;28;20232;-72
2023/03/14 06:24:24;;;;;;;1.70;1.30;;;8.20;99.90;;;;;;5075469;28;20236;-72
2023/03/14 06:26:51;;;;;;;2.03;1.30;;;8.20;99.90;;;;;;5075332;28;20668;-71
2023/03/14 06:29:19;;;;;;;3.10;1.77;;;8.20;99.90;;;;;;5075470;28;20194;-72
2023/03/14 06:31:45;;;;;;;5.57;1.93;;;8.30;99.90;;;;;;5095453;28;20235;-74
2023/03/14 06:34:12;;;;;;;4.57;1.50;;;8.30;99.90;;;;;;5095485;28;20224;-72
2023/03/14 06:36:38;;;;;;;3.03;1.40;;;8.30;99.90;;;;;;5095235;28;20793;-73
2023/03/14 06:39:05;;;;;;;3.70;1.73;;;8.40;99.90;;;;;;5095330;28;20197;-71
2023/03/14 06:41:32;;;;;;;1.30;1.10;;;8.40;99.90;;;;;;5095447;28;20228;-74
2023/03/14 06:43:59;;;;;;;1.57;1.20;;;8.40;99.90;;;;;;5095241;28;20241;-76
2023/03/14 06:46:27;;;;;;;3.33;1.37;;;8.60;99.90;;;;;;5095317;28;20235;-72
2023/03/14 06:48:54;;;;;;;2.07;1.40;;;8.60;99.90;;;;;;5095275;28;20227;-72
2023/03/14 06:51:20;;;;;;;3.23;1.10;;;8.60;99.90;;;;;;5095253;28;20286;-73
2023/03/14 06:53:47;;;;;;;5.37;1.70;;;8.70;99.90;;;;;;5094667;28;20255;-72
2023/03/14 06:56:14;;;;;;;4.40;1.23;;;8.70;99.90;;;;;;5095124;28;20235;-72
2023/03/14 06:58:40;;;;;;;2.63;1.30;;;8.80;99.90;;;;;;5095081;28;20227;-71
2023/03/14 07:01:20;;;;;;;2.93;1.27;;;8.80;99.90;;;;;;5094798;28;20249;-72
2023/03/14 07:03:48;;;;;;;2.60;1.23;;;8.80;99.90;;;;;;5095024;28;20231;-71
2023/03/14 07:06:15;;;;;;;2.80;1.20;;;8.90;99.90;;;;;;5094702;28;20232;-71
2023/03/14 07:08:41;;;;;;;2.30;1.00;;;8.90;99.90;;;;;;5094827;28;20232;-71
2023/03/14 07:11:09;;;;;;;2.33;1.20;;;9.00;99.90;;;;;;5094884;28;20227;-71
2023/03/14 07:13:36;;;;;;;5.83;1.30;;;9.00;99.90;;;;;;5094795;28;20307;-71
2023/03/14 07:16:03;;;;;;;3.00;1.30;;;9.00;99.90;;;;;;5094700;28;20233;-75
2023/03/14 07:18:29;;;;;;;3.00;1.63;;;9.10;99.90;;;;;;5094273;28;20196;-74
2023/03/14 07:20:57;;;;;;;2.83;1.10;;;9.10;99.90;;;;;;5094143;28;20246;-73
2023/03/14 07:23:25;;;;;;;4.57;1.33;;;9.20;99.90;;;;;;5094632;28;20239;-73
2023/03/14 07:25:53;;;;;;;6.33;1.37;;;9.20;99.90;;;;;;5093428;28;20208;-73
2023/03/14 07:28:20;;;;;;;3.40;0.90;;;9.20;99.90;;;;;;5094518;28;20193;-71
2023/03/14 07:30:47;;;;;;;2.77;1.10;;;9.30;99.90;;;;;;5094282;28;20255;-71
2023/03/14 07:33:13;;;;;;;2.20;1.00;;;9.40;99.90;;;;;;5094163;28;20226;-72
2023/03/14 07:35:40;;;;;;;5.63;1.20;;;9.50;99.90;;;;;;5094030;28;20281;-71
2023/03/14 07:38:08;;;;;;;3.57;1.37;;;9.50;99.90;;;;;;5094392;28;20196;-71
2023/03/14 07:40:34;;;;;;;3.93;1.70;;;9.50;99.90;;;;;;5094149;28;20220;-71
2023/03/14 07:43:01;;;;;;;4.43;1.60;;;9.50;99.90;;;;;;5094166;28;20231;-73
2023/03/14 07:45:28;;;;;;;2.83;1.40;;;9.50;99.90;;;;;;5080123;28;20237;-73
2023/03/14 07:47:57;;;;;;;3.70;1.40;;;9.60;99.90;;;;;;5091874;28;20224;-74
2023/03/14 07:50:23;;;;;;;2.33;1.30;;;9.60;99.90;;;;;;5089294;28;20192;-74
2023/03/14 07:52:50;;;;;;;2.93;1.40;;;9.70;99.90;;;;;;5092526;28;20227;-73
2023/03/14 07:55:18;;;;;;;2.93;1.33;;;9.80;99.90;;;;;;5080085;28;20315;-73
2023/03/14 07:57:45;;;;;;;3.10;1.30;;;9.90;99.90;;;;;;5073400;28;20228;-73
2023/03/14 08:00:13;;;;;;;4.63;1.30;;;10.00;99.90;;;;;;5073453;28;20225;-73
2023/03/14 08:02:40;;;;;;;2.70;1.10;;;10.10;99.90;;;;;;5073455;28;20200;-73
2023/03/14 08:05:09;;;;;;;4.27;1.40;;;10.20;99.90;;;;;;5073479;28;20221;-73
2023/03/14 08:07:35;;;;;;;4.90;1.30;;;10.30;99.90;;;;;;5072950;28;20620;-74
2023/03/14 08:10:02;;;;;;;5.17;1.20;;;10.40;99.90;;;;;;5083658;28;20287;-74
2023/03/14 08:12:30;;;;;;;2.50;1.30;;;10.40;99.90;;;;;;5093308;28;20197;-73
2023/03/14 08:14:56;;;;;;;3.40;1.20;;;10.40;99.90;;;;;;5083550;28;20727;-73
2023/03/14 08:17:23;;;;;;;3.70;1.37;;;10.30;99.90;;;;;;5073120;28;20280;-74
2023/03/14 08:19:50;;;;;;;2.63;1.30;;;10.50;99.90;;;;;;5086007;28;20244;-73
2023/03/14 08:22:16;;;;;;;3.47;1.00;;;10.40;99.90;;;;;;5113632;28;20242;-73
2023/03/14 08:24:43;;;;;;;4.33;1.00;;;10.20;99.90;;;;;;5100235;28;20613;-72
2023/03/14 08:27:09;;;;;;;3.43;1.53;;;10.30;99.90;;;;;;5072852;28;20425;-73
2023/03/14 08:29:37;;;;;;;2.53;1.40;;;10.50;99.90;;;;;;5072868;28;20660;-73
2023/03/14 08:32:04;;;;;;;3.93;1.33;;;10.30;99.90;;;;;;5073109;28;20254;-74
2023/03/14 08:34:31;;;;;;;3.80;1.27;;;10.40;99.90;;;;;;5072882;28;20251;-74
2023/03/14 08:36:57;;;;;;;6.47;1.60;;;10.50;99.90;;;;;;5072619;28;20228;-73
2023/03/14 08:39:24;;;;;;;4.93;1.33;;;10.70;99.90;;;;;;5072839;28;20578;-74
2023/03/14 08:41:51;;;;;;;3.80;1.10;;;10.80;99.90;;;;;;5072901;28;20637;-73
2023/03/14 08:44:17;;;;;;;4.03;1.00;;;10.80;99.90;;;;;;5072819;28;20243;-71
2023/03/14 08:46:45;;;;;;;2.27;1.00;;;11.10;99.90;;;;;;5072973;28;20201;-74
2023/03/14 08:49:12;;;;;;;2.30;1.00;;;11.10;99.90;;;;;;5072864;28;20597;-72
2023/03/14 08:51:38;;;;;;;2.27;1.00;;;11.10;99.90;;;;;;5072632;28;20220;-72
2023/03/14 08:54:05;;;;;;;3.60;1.20;;;11.00;99.90;;;;;;5072741;28;20224;-72
2023/03/14 08:56:32;;;;;;;1.67;1.10;;;11.20;99.90;;;;;;5085292;28;20196;-71
2023/03/14 08:58:58;;;;;;;3.77;1.10;;;11.20;99.90;;;;;;5092987;28;20596;-71
2023/03/14 09:01:26;;;;;;;1.90;1.00;;;11.20;99.90;;;;;;5079840;28;20224;-70
2023/03/14 09:03:53;;;;;;;2.30;1.37;;;11.60;99.90;;;;;;5072450;28;20568;-70
2023/03/14 09:06:20;;;;;;;3.77;1.37;;;11.50;99.90;;;;;;5072431;28;20221;-71
2023/03/14 09:08:47;;;;;;;2.73;0.97;;;11.50;99.90;;;;;;5072326;28;20282;-71
2023/03/14 09:11:14;;;;;;;2.13;1.00;;;11.40;99.90;;;;;;5072111;28;20747;-71
2023/03/14 09:13:41;;;;;;;1.97;1.20;;;11.60;99.90;;;;;;5072458;28;20197;-71
2023/03/14 09:16:08;;;;;;;0.80;0.73;;;11.70;99.90;;;;;;5072355;28;20233;-71
2023/03/14 09:18:35;;;;;;;1.63;1.13;;;11.60;99.90;;;;;;5081278;28;20253;-71
2023/03/14 09:21:04;;;;;;;1.20;0.87;;;11.70;99.90;;;;;;5092301;28;20236;-71
2023/03/14 09:23:31;;;;;;;1.10;0.90;;;11.80;99.90;;;;;;5083388;28;20645;-71
2023/03/14 09:25:59;;;;;;;1.10;0.87;;;11.60;99.90;;;;;;5072242;28;20262;-71
2023/03/14 09:28:26;;;;;;;2.43;0.90;;;11.70;99.90;;;;;;5072050;28;20557;-71
2023/03/14 09:30:54;;;;;;;1.20;0.80;;;11.70;99.90;;;;;;5072334;28;20236;-71
2023/03/14 09:33:21;;;;;;;1.50;0.83;;;11.80;99.90;;;;;;5079002;28;20192;-71
2023/03/14 09:35:48;;;;;;;2.20;0.80;;;11.60;99.90;;;;;;5092152;28;20267;-72
2023/03/14 09:38:16;;;;;;;0.97;0.83;;;11.50;99.90;;;;;;5092010;28;20258;-71
2023/03/14 09:40:43;;;;;;;1.53;0.87;;;11.60;99.90;;;;;;5092400;28;20192;-71
2023/03/14 09:43:12;;;;;;;0.90;0.70;;;11.60;99.90;;;;;;5087879;28;20235;-71
2023/03/14 09:45:42;;;;;;;1.97;0.83;;;11.40;99.90;;;;;;5071796;28;20656;-71
2023/03/14 09:48:15;;;;;;;2.23;0.97;;;11.40;99.90;;;;;;5076720;28;20192;-70
2023/03/14 09:50:45;;;;;;;2.60;1.20;;;11.50;99.90;;;;;;5096177;28;20200;-70
2023/03/14 09:53:15;;;;;;;1.37;1.10;;;11.50;99.90;;;;;;5095807;28;20655;-71
2023/03/14 09:55:45;;;;;;;1.90;0.80;;;11.50;99.90;;;;;;5096090;28;20325;-71
2023/03/14 09:58:14;;;;;;;2.90;0.90;;;11.40;99.90;;;;;;5095701;28;20289;-71
2023/03/14 10:00:41;;;;;;;2.17;1.03;;;11.30;99.90;;;;;;5095624;28;20228;-72
2023/03/14 10:03:25;;;;;;;1.50;0.80;;;11.50;99.90;;;;;;5095652;28;20216;-71
2023/03/14 10:05:52;;;;;;;1.50;1.10;;;11.50;99.90;;;;;;5096120;28;20231;-71
2023/03/14 10:08:18;;;;;;;1.03;0.80;;;11.50;99.90;;;;;;5091169;28;20558;-70
2023/03/14 10:10:47;;;;;;;0.87;0.80;;;11.50;99.90;;;;;;5076128;28;20857;-71
2023/03/14 10:13:17;;;;;;;3.57;1.20;;;11.50;99.90;;;;;;5091548;28;20223;-71
2023/03/14 10:15:48;;;;;;;1.97;1.20;;;11.60;99.90;;;;;;5075017;28;20343;-71
2023/03/14 10:18:15;;;;;;;3.00;1.13;;;11.60;99.90;;;;;;5075380;28;20227;-72
2023/03/14 10:20:46;;;;;;;2.63;0.80;;;11.80;99.90;;;;;;5075336;28;20212;-70
2023/03/14 10:23:28;;;;;;;2.17;1.30;;;12.20;99.90;;;;;;5075133;28;20231;-71
2023/03/14 10:26:07;;;;;;;1.37;1.00;;;12.40;99.90;;;;;;5075030;28;20193;-72
2023/03/14 10:28:38;;;;;;;2.37;1.27;;;12.50;99.90;;;;;;5075028;28;20192;-71
2023/03/14 10:31:05;;;;;;;1.53;1.10;;;12.30;99.90;;;;;;5075228;28;20228;-70
2023/03/14 10:33:35;;;;;;;1.97;1.10;;;12.40;99.90;;;;;;5074762;28;20224;-70
2023/03/14 10:36:03;;;;;;;1.87;1.10;;;12.20;99.90;;;;;;5074958;28;20248;-71
2023/03/14 10:38:32;;;;;;;1.87;1.10;;;12.00;99.90;;;;;;5074930;28;20574;-70
2023/03/14 10:40:59;;;;;;;1.20;1.10;;;11.70;99.90;;;;;;5074542;28;20231;-71
2023/03/14 10:43:32;;;;;;;2.87;1.37;;;11.70;99.90;;;;;;5074544;28;20629;-71
2023/03/14 10:46:02;;;;;;;1.37;1.00;;;11.60;99.90;;;;;;5074956;28;20260;-70
2023/03/14 10:48:34;;;;;;;1.83;1.10;;;11.50;99.90;;;;;;5074686;28;20645;-72
2023/03/14 10:51:07;;;;;;;2.60;0.97;;;11.40;99.90;;;;;;5074769;28;20197;-71
2023/03/14 10:53:35;;;;;;;1.17;1.07;;;11.30;99.90;;;;;;5074447;28;20217;-72
2023/03/14 10:56:04;;;;;;;1.03;0.93;;;11.30;99.90;;;;;;5074375;28;20261;-71
2023/03/14 10:58:39;;;;;;;1.27;0.90;;;11.20;99.90;;;;;;5074438;28;20204;-72
2023/03/14 11:01:27;;;;;;;1.33;0.87;;;11.30;99.90;;;;;;5074303;28;20659;-72
2023/03/14 11:03:59;;;;;;;1.33;0.90;;;11.20;99.90;;;;;;5074265;28;20227;-71
2023/03/14 11:06:35;;;;;;;0.80;0.80;;;11.70;99.90;;;;;;5074146;28;20679;-72
2023/03/14 11:09:11;;;;;;;3.90;0.80;;;12.50;99.90;;;;;;5074119;28;20267;-71
2023/03/14 11:11:45;;;;;;;1.73;0.83;;;13.50;99.90;;;;;;5074106;28;20229;-71
2023/03/14 11:14:21;;;;;;;1.33;0.80;;;14.80;99.90;;;;;;5073909;28;20640;-71
2023/03/14 11:16:57;;;;;;;0.73;0.70;;;14.40;99.90;;;;;;5073795;28;20662;-70
2023/03/14 11:19:46;;;;;;;1.65;0.80;;;14.20;99.90;;;;;;5074044;28;20228;-70
2023/03/14 11:22:24;;;;;;;1.00;0.88;;;14.30;99.90;;;;;;5073941;28;20267;-70
2023/03/14 11:25:06;;;;;;;0.70;0.70;;;14.80;99.90;;;;;;5084273;28;20236;-71
2023/03/14 11:27:42;;;;;;;1.35;0.80;;;15.00;99.90;;;;;;5094569;28;20239;-70
2023/03/14 11:30:19;;;;;;;1.30;0.80;;;15.10;99.90;;;;;;5094182;28;20198;-70
2023/03/14 11:32:51;;;;;;;0.55;0.55;;;15.90;99.90;;;;;;5094418;28;20733;-71
2023/03/14 11:35:24;;;;;;;1.55;0.90;;;14.10;99.90;;;;;;5091006;28;20625;-71
2023/03/14 11:37:55;;;;;;;0.82;0.65;;;14.40;99.90;;;;;;5094066;28;20232;-71
2023/03/14 11:40:24;;;;;;;1.77;0.88;;;14.70;99.90;;;;;;5094082;28;20679;-71
2023/03/14 11:43:00;;;;;;;1.27;0.60;;;13.80;99.90;;;;;;5094109;28;20196;-71
2023/03/14 11:45:34;;;;;;;0.73;0.70;;;14.00;99.90;;;;;;5093895;28;20203;-71
2023/03/14 11:48:16;;;;;;;0.50;0.50;;;14.40;99.90;;;;;;5094131;28;20226;-71
2023/03/14 11:50:45;;;;;;;2.20;0.90;;;13.70;99.90;;;;;;5094154;28;20334;-71
2023/03/14 11:53:17;;;;;;;0.50;0.50;;;13.80;99.90;;;;;;5093848;28;20667;-72
2023/03/14 11:55:45;;;;;;;0.57;0.40;;;13.40;99.90;;;;;;5093635;28;20282;-72
2023/03/14 11:58:18;;;;;;;2.53;0.60;;;13.80;99.90;;;;;;5093425;28;20671;-71
2023/03/14 12:00:47;;;;;;;2.20;0.80;;;14.40;99.90;;;;;;5093904;28;20231;-71
2023/03/14 12:03:21;;;;;;;0.50;0.50;;;14.30;99.90;;;;;;5093675;28;20241;-72
2023/03/14 12:05:57;;;;;;;1.58;0.80;;;14.70;99.90;;;;;;5093607;28;20235;-71
2023/03/14 12:08:50;;;;;;;1.13;0.60;;;14.70;99.90;;;;;;5093457;28;20255;-71
2023/03/14 12:11:23;;;;;;;1.50;0.70;;;13.80;99.90;;;;;;5093230;28;20257;-72
2023/03/14 12:13:52;;;;;;;0.93;0.70;;;13.40;99.90;;;;;;5093815;28;20698;-71
2023/03/14 12:16:37;;;;;;;2.10;0.90;;;13.10;99.90;;;;;;5090358;28;20703;-70
2023/03/14 12:19:27;;;;;;;1.40;1.00;;;13.00;99.90;;;;;;5112046;28;20734;-69
2023/03/14 12:21:58;;;;;;;3.27;1.00;;;13.20;99.90;;;;;;5073059;28;20224;-72
2023/03/14 12:24:27;;;;;;;1.27;0.87;;;13.10;99.90;;;;;;5073166;28;20220;-69
2023/03/14 12:26:58;;;;;;;2.77;0.73;;;12.70;99.90;;;;;;5072787;28;20236;-70
2023/03/14 12:29:25;;;;;;;0.60;0.60;;;12.30;99.90;;;;;;5072815;28;20185;-69
2023/03/14 12:34:47;;;;;;;0.60;0.60;;;12.10;99.90;;;;;;5130784;27;20294;-72
2023/03/14 12:37:24;;;;;;;0.50;0.50;;;10.70;99.90;;;;;;5110112;28;20222;-73
2023/03/14 12:40:06;;;;;;;1.93;0.70;;;10.40;99.90;;;;;;5110092;28;20230;-73
2023/03/14 12:42:41;;;;;;;0.60;0.60;;;10.10;99.90;;;;;;5110153;28;20278;-74
2023/03/14 12:45:28;;;;;;;0.70;0.50;;;10.00;99.90;;;;;;5110028;28;20261;-73
2023/03/14 12:48:10;;;;;;;0.60;0.60;;;10.00;99.90;;;;;;5109828;28;20191;-73
2023/03/14 12:50:44;;;;;;;2.00;0.60;;;10.00;99.90;;;;;;5106565;28;20200;-73
2023/03/14 12:53:39;;;;;;;1.30;0.70;;;10.00;99.90;;;;;;5110156;28;20252;-73
2023/03/14 12:56:18;;;;;;;0.63;0.63;;;10.00;99.90;;;;;;5109888;28;20245;-73
2023/03/14 12:58:48;;;;;;;0.57;0.57;;;9.90;99.90;;;;;;5109793;28;20675;-73
2023/03/14 13:01:18;;;;;;;0.70;0.70;;;9.80;99.90;;;;;;5109147;28;20675;-73
2023/03/14 13:03:47;;;;;;;0.73;0.63;;;9.80;99.90;;;;;;5109886;28;20255;-72
2023/03/14 13:06:53;;;;;;;1.00;0.80;;;9.70;99.90;;;;;;5109814;28;20223;-72